createdAt,value
2023-04-12T00:03:03.173Z,9.70
2023-04-12T00:06:07.292Z,9.70
2023-04-12T00:09:10.162Z,9.70
2023-04-12T00:12:14.401Z,9.70
2023-04-12T00:15:17.378Z,9.70
2023-04-12T00:18:20.182Z,9.80
2023-04-12T00:21:23.686Z,9.80
2023-04-12T00:24:27.263Z,9.80
2023-04-12T00:27:31.420Z,9.90
2023-04-12T00:30:34.299Z,9.90
2023-04-12T00:33:37.501Z,9.90
2023-04-12T00:36:40.346Z,9.90
2023-04-12T00:39:43.142Z,9.90
2023-04-12T00:42:47.261Z,9.90
2023-04-12T00:45:51.136Z,9.90
2023-04-12T00:48:54.073Z,9.90
2023-04-12T00:51:58.037Z,9.90
2023-04-12T00:55:01.084Z,9.90
2023-04-12T00:58:05.781Z,9.90
2023-04-12T01:01:10.528Z,9.90
2023-04-12T01:04:13.938Z,9.90
2023-04-12T01:07:24.836Z,10.00
2023-04-12T01:10:39.801Z,10.00
2023-04-12T01:13:52.796Z,10.00
2023-04-12T01:17:02.551Z,10.00
2023-04-12T01:20:14.163Z,10.00
2023-04-12T01:23:34.676Z,10.00
2023-04-12T01:26:42.886Z,9.90
2023-04-12T01:29:50.015Z,10.00
2023-04-12T01:32:54.996Z,10.00
2023-04-12T01:35:59.884Z,9.90
2023-04-12T01:39:04.953Z,10.00
2023-04-12T01:42:07.762Z,10.10
2023-04-12T01:45:12.755Z,10.00
2023-04-12T01:48:15.781Z,10.10
2023-04-12T01:51:29.126Z,10.10
2023-04-12T01:54:35.259Z,10.00
2023-04-12T01:57:39.639Z,10.10
2023-04-12T02:00:45.769Z,10.10
2023-04-12T02:03:50.677Z,10.10
2023-04-12T02:06:53.954Z,9.90
2023-04-12T02:09:56.740Z,9.90
2023-04-12T02:13:01.232Z,9.90
2023-04-12T02:16:07.787Z,10.00
2023-04-12T02:19:10.662Z,9.90
2023-04-12T02:22:13.509Z,9.90
2023-04-12T02:25:18.007Z,9.80
2023-04-12T02:28:20.874Z,9.60
2023-04-12T02:31:25.402Z,9.50
2023-04-12T02:34:31.275Z,9.40
2023-04-12T02:37:34.059Z,9.40
2023-04-12T02:40:40.686Z,9.40
2023-04-12T02:43:43.532Z,9.50
2023-04-12T02:46:47.654Z,9.50
2023-04-12T02:49:50.599Z,9.40
2023-04-12T02:52:53.815Z,9.40
2023-04-12T02:55:57.291Z,9.40
2023-04-12T02:59:00.085Z,9.50
2023-04-12T03:02:04.566Z,9.50
2023-04-12T03:05:08.794Z,9.50
2023-04-12T03:08:11.611Z,9.50
2023-04-12T03:11:14.937Z,9.40
2023-04-12T03:14:17.754Z,9.40
2023-04-12T03:17:21.947Z,9.50
2023-04-12T03:20:25.372Z,9.50
2023-04-12T03:23:28.230Z,9.60
2023-04-12T03:26:31.209Z,9.50
2023-04-12T03:29:34.002Z,9.50
2023-04-12T03:32:38.294Z,9.60
2023-04-12T03:35:41.144Z,9.70
2023-04-12T03:38:44.119Z,9.50
2023-04-12T03:41:47.909Z,9.50
2023-04-12T03:44:52.339Z,9.50
2023-04-12T03:47:56.952Z,9.30
2023-04-12T03:51:00.583Z,9.40
2023-04-12T03:54:04.514Z,9.40
2023-04-12T03:57:07.524Z,9.50
2023-04-12T04:00:12.462Z,9.50
2023-04-12T04:03:16.987Z,9.50
2023-04-12T04:06:19.915Z,9.60
2023-04-12T04:09:22.757Z,9.60
2023-04-12T04:12:25.695Z,9.50
2023-04-12T04:15:28.744Z,9.50
2023-04-12T04:18:34.740Z,9.50
2023-04-12T04:21:37.581Z,9.50
2023-04-12T04:24:40.366Z,9.50
2023-04-12T04:27:45.132Z,9.40
2023-04-12T04:30:47.926Z,9.50
2023-04-12T04:33:52.057Z,9.50
2023-04-12T04:36:54.925Z,9.40
2023-04-12T04:39:58.816Z,9.30
2023-04-12T04:43:01.614Z,9.30
2023-04-12T04:46:04.593Z,9.30
2023-04-12T04:49:09.323Z,9.30
2023-04-12T04:52:13.177Z,9.30
2023-04-12T04:55:17.583Z,9.40
2023-04-12T04:58:20.412Z,9.40
2023-04-12T05:01:28.040Z,9.50
2023-04-12T05:04:32.628Z,9.40
2023-04-12T05:07:36.305Z,9.40
2023-04-12T05:10:39.096Z,9.40
2023-04-12T05:13:41.938Z,9.50
2023-04-12T05:16:44.754Z,9.50
2023-04-12T05:19:48.943Z,9.50
2023-04-12T05:22:51.721Z,9.50
2023-04-12T05:25:54.590Z,9.50
2023-04-12T05:28:58.043Z,9.50
2023-04-12T05:32:01.017Z,9.60
2023-04-12T05:35:06.160Z,9.60
2023-04-12T05:38:08.944Z,9.60
2023-04-12T05:41:11.724Z,9.60
2023-04-12T05:44:14.525Z,9.60
2023-04-12T05:47:17.385Z,9.60
2023-04-12T05:50:21.726Z,9.60
2023-04-12T05:53:24.615Z,9.60
2023-04-12T05:56:27.395Z,9.50
2023-04-12T05:59:30.781Z,9.50
2023-04-12T06:02:34.632Z,9.50
2023-04-12T06:05:39.521Z,9.50
2023-04-12T06:08:42.376Z,9.40
2023-04-12T06:11:45.193Z,9.50
2023-04-12T06:14:47.986Z,9.40
2023-04-12T06:17:51.380Z,9.50
2023-04-12T06:20:55.630Z,9.50
2023-04-12T06:23:58.410Z,9.60
2023-04-12T06:27:01.220Z,9.50
2023-04-12T06:30:04.251Z,9.60
2023-04-12T06:33:07.227Z,9.60
2023-04-12T06:36:12.623Z,9.70
2023-04-12T06:39:16.319Z,9.70
2023-04-12T06:42:19.189Z,9.60
2023-04-12T06:45:22.046Z,9.70
2023-04-12T06:48:24.832Z,9.70
2023-04-12T06:51:29.018Z,9.70
2023-04-12T06:54:31.830Z,9.70
2023-04-12T06:57:34.639Z,9.70
2023-04-12T07:00:37.749Z,9.70
2023-04-12T07:03:40.805Z,9.70
2023-04-12T07:06:45.072Z,9.80
2023-04-12T07:09:48.604Z,9.90
2023-04-12T07:12:51.929Z,9.90
2023-04-12T07:15:55.313Z,9.90
2023-04-12T07:18:58.248Z,10.00
2023-04-12T07:22:02.690Z,10.00
2023-04-12T07:25:10.067Z,10.00
2023-04-12T07:28:13.271Z,10.00
2023-04-12T07:31:16.320Z,10.00
2023-04-12T07:34:19.246Z,10.00
2023-04-12T07:37:23.400Z,10.00
2023-04-12T07:40:26.396Z,9.90
2023-04-12T07:43:29.174Z,9.90
2023-04-12T07:46:32.186Z,10.10
2023-04-12T07:49:35.069Z,10.10
2023-04-12T07:52:39.198Z,10.20
2023-04-12T07:55:41.994Z,10.20
2023-04-12T07:58:44.833Z,10.30
2023-04-12T08:01:47.661Z,10.30
2023-04-12T08:04:50.529Z,10.40
2023-04-12T08:07:54.680Z,10.40
2023-04-12T08:10:57.479Z,10.50
2023-04-12T08:14:00.273Z,10.50
2023-04-12T08:17:03.036Z,10.50
2023-04-12T08:20:06.914Z,10.50
2023-04-12T08:23:11.508Z,10.60
2023-04-12T08:26:14.336Z,10.70
2023-04-12T08:29:17.141Z,10.70
2023-04-12T08:32:19.944Z,10.80
2023-04-12T08:35:23.380Z,10.70
2023-04-12T08:38:41.315Z,10.70
2023-04-12T08:41:48.366Z,10.70
2023-04-12T08:44:52.223Z,10.70
2023-04-12T08:47:55.114Z,10.90
2023-04-12T08:50:58.472Z,10.90
2023-04-12T08:54:02.743Z,10.90
2023-04-12T08:57:08.268Z,10.90
2023-04-12T09:00:13.108Z,10.90
2023-04-12T09:03:16.169Z,10.90
2023-04-12T09:06:19.146Z,11.10
2023-04-12T09:09:42.092Z,11.10
2023-04-12T09:12:48.983Z,11.10
2023-04-12T09:15:53.145Z,11.20
2023-04-12T09:18:57.668Z,11.20
2023-04-12T09:22:01.746Z,11.30
2023-04-12T09:25:06.753Z,11.30
2023-04-12T09:28:24.233Z,11.40
2023-04-12T09:31:27.173Z,11.50
2023-04-12T09:34:30.667Z,11.60
2023-04-12T09:37:33.481Z,11.70
2023-04-12T09:40:38.561Z,11.80
2023-04-12T09:43:42.097Z,11.90
2023-04-12T09:46:52.359Z,12.00
2023-04-12T09:49:55.426Z,12.10
2023-04-12T09:52:59.224Z,12.10
2023-04-12T09:56:05.785Z,12.10
2023-04-12T09:59:09.182Z,12.20
2023-04-12T10:02:16.658Z,12.50
2023-04-12T10:05:21.802Z,12.60
2023-04-12T10:08:25.376Z,12.80
2023-04-12T10:11:29.985Z,12.90
2023-04-12T10:14:32.922Z,13.10
2023-04-12T10:17:36.556Z,13.20
2023-04-12T10:20:41.717Z,13.30
2023-04-12T10:23:46.097Z,13.50
2023-04-12T10:26:51.222Z,13.50
2023-04-12T10:29:54.231Z,13.70
2023-04-12T10:33:19.703Z,13.90
2023-04-12T10:36:53.169Z,14.00
2023-04-12T10:39:56.232Z,14.10
2023-04-12T10:43:27.555Z,14.10
2023-04-12T10:46:51.001Z,14.20
2023-04-12T10:50:21.478Z,14.20
2023-04-12T10:53:26.182Z,14.40
2023-04-12T10:56:39.807Z,14.60
2023-04-12T10:59:56.857Z,14.70
2023-04-12T11:03:12.896Z,14.80
2023-04-12T11:06:26.981Z,14.90
2023-04-12T11:09:40.983Z,14.90
2023-04-12T11:12:49.785Z,14.90
2023-04-12T11:15:56.485Z,15.00
2023-04-12T11:19:00.077Z,15.00
2023-04-12T11:22:04.664Z,15.00
2023-04-12T11:25:09.877Z,15.10
2023-04-12T11:28:27.919Z,15.10
2023-04-12T11:31:32.785Z,15.00
2023-04-12T11:34:36.690Z,15.10
2023-04-12T11:37:39.795Z,15.20
2023-04-12T11:40:44.029Z,15.30
2023-04-12T11:43:47.244Z,15.40
2023-04-12T11:46:50.489Z,15.40
2023-04-12T11:49:55.487Z,15.40
2023-04-12T11:53:11.680Z,15.50
2023-04-12T11:56:15.876Z,15.30
2023-04-12T11:59:18.790Z,15.30
2023-04-12T12:02:23.743Z,15.40
2023-04-12T12:05:27.897Z,15.30
2023-04-12T12:08:31.168Z,15.30
2023-04-12T12:11:35.402Z,15.20
2023-04-12T12:14:38.729Z,15.40
2023-04-12T12:17:41.644Z,15.40
2023-04-12T12:20:49.756Z,15.40
2023-04-12T12:23:52.585Z,15.40
2023-04-12T12:26:56.792Z,15.60
2023-04-12T12:30:02.446Z,15.60
2023-04-12T12:33:06.084Z,15.60
2023-04-12T12:36:09.156Z,15.70
2023-04-12T12:39:15.291Z,15.80
2023-04-12T12:42:19.532Z,15.80
2023-04-12T12:45:24.187Z,15.80
2023-04-12T12:48:27.120Z,15.90
2023-04-12T12:51:29.970Z,15.90
2023-04-12T12:54:41.069Z,15.80
2023-04-12T12:57:58.437Z,15.80
2023-04-12T13:01:09.474Z,15.80
2023-04-12T13:04:12.450Z,15.70
2023-04-12T13:07:15.456Z,15.60
2023-04-12T13:10:18.565Z,15.40
2023-04-12T13:13:22.734Z,15.50
2023-04-12T13:16:27.030Z,15.50
2023-04-12T13:19:30.319Z,15.50
2023-04-12T13:22:33.187Z,15.60
2023-04-12T13:25:36.745Z,15.60
2023-04-12T13:28:40.964Z,15.60
2023-04-12T13:31:43.998Z,15.70
2023-04-12T13:34:46.900Z,15.50
2023-04-12T13:37:49.751Z,15.50
2023-04-12T13:40:52.535Z,15.50
2023-04-12T13:43:56.712Z,15.40
2023-04-12T13:46:59.678Z,15.40
2023-04-12T13:50:03.271Z,15.40
2023-04-12T13:53:06.140Z,15.40
2023-04-12T13:56:09.461Z,15.40
2023-04-12T13:59:14.169Z,15.50
2023-04-12T14:02:17.074Z,15.50
2023-04-12T14:05:20.096Z,15.40
2023-04-12T14:08:22.934Z,15.40
2023-04-12T14:11:25.932Z,15.40
2023-04-12T14:14:30.083Z,15.40
2023-04-12T14:17:33.248Z,15.40
2023-04-12T14:20:36.511Z,15.40
2023-04-12T14:23:40.000Z,15.50
2023-04-12T14:26:43.043Z,15.40
2023-04-12T14:29:47.225Z,15.40
2023-04-12T14:32:50.353Z,15.40
2023-04-12T14:35:53.702Z,15.40
2023-04-12T14:38:56.880Z,15.20
2023-04-12T14:41:59.880Z,15.30
2023-04-12T14:45:05.356Z,15.30
2023-04-12T14:48:08.236Z,15.20
2023-04-12T14:51:11.227Z,15.10
2023-04-12T14:54:14.068Z,15.20
2023-04-12T14:57:17.478Z,15.20
2023-04-12T15:00:23.268Z,15.20
2023-04-12T15:03:29.812Z,15.20
2023-04-12T15:06:34.905Z,15.20
2023-04-12T15:09:37.748Z,15.10
2023-04-12T15:12:40.816Z,15.10
2023-04-12T15:15:47.227Z,15.10
2023-04-12T15:18:52.309Z,15.10
2023-04-12T15:21:55.891Z,15.00
2023-04-12T15:24:58.722Z,15.00
2023-04-12T15:28:01.606Z,15.10
2023-04-12T15:31:06.415Z,15.10
2023-04-12T15:34:09.450Z,15.10
2023-04-12T15:37:12.267Z,15.10
2023-04-12T15:40:15.838Z,15.10
2023-04-12T15:43:18.814Z,15.20
2023-04-12T15:46:23.504Z,15.20
2023-04-12T15:49:27.195Z,15.10
2023-04-12T15:52:29.997Z,15.10
2023-04-12T15:55:33.158Z,15.10
2023-04-12T15:58:37.007Z,15.00
2023-04-12T16:01:41.693Z,15.10
2023-04-12T16:04:45.444Z,15.10
2023-04-12T16:07:50.852Z,15.10
2023-04-12T16:10:53.694Z,15.10
2023-04-12T16:13:56.537Z,15.20
2023-04-12T16:17:01.768Z,15.20
2023-04-12T16:20:06.644Z,15.30
2023-04-12T16:23:09.832Z,15.30
2023-04-12T16:26:13.095Z,15.30
2023-04-12T16:29:16.141Z,15.30
2023-04-12T16:32:20.305Z,15.30
2023-04-12T16:35:23.213Z,15.30
2023-04-12T16:38:26.396Z,15.10
2023-04-12T16:41:29.217Z,15.10
2023-04-12T16:44:32.028Z,15.20
2023-04-12T16:47:36.709Z,15.10
2023-04-12T16:50:39.706Z,15.20
2023-04-12T16:53:42.549Z,15.20
2023-04-12T16:56:46.580Z,15.30
2023-04-12T16:59:50.416Z,15.30
2023-04-12T17:02:55.237Z,15.30
2023-04-12T17:05:58.207Z,15.20
2023-04-12T17:09:01.147Z,15.20
2023-04-12T17:12:04.218Z,15.10
2023-04-12T17:15:08.262Z,15.00
2023-04-12T17:18:12.474Z,15.00
2023-04-12T17:21:15.933Z,14.80
2023-04-12T17:24:18.757Z,14.80
2023-04-12T17:27:21.652Z,14.80
2023-04-12T17:30:24.505Z,14.80
2023-04-12T17:33:29.402Z,14.70
2023-04-12T17:36:33.928Z,14.70
2023-04-12T17:39:37.232Z,14.80
2023-04-12T17:42:41.222Z,14.70
2023-04-12T17:45:44.112Z,14.60
2023-04-12T17:48:48.314Z,14.70
2023-04-12T17:51:51.126Z,14.60
2023-04-12T17:54:53.922Z,14.70
2023-04-12T17:57:57.124Z,14.60
2023-04-12T18:01:00.252Z,14.60
2023-04-12T18:04:05.669Z,14.60
2023-04-12T18:07:09.767Z,14.60
2023-04-12T18:10:15.566Z,14.60
2023-04-12T18:13:18.752Z,14.50
2023-04-12T18:16:21.942Z,14.50
2023-04-12T18:19:26.325Z,14.30
2023-04-12T18:22:29.342Z,14.40
2023-04-12T18:25:32.149Z,14.20
2023-04-12T18:28:35.014Z,14.20
2023-04-12T18:31:39.395Z,14.30
2023-04-12T18:34:43.652Z,14.30
2023-04-12T18:37:46.844Z,14.30
2023-04-12T18:40:49.628Z,14.30
2023-04-12T18:43:52.447Z,14.40
2023-04-12T18:46:55.303Z,14.20
2023-04-12T18:49:59.608Z,14.20
2023-04-12T18:53:02.390Z,14.10
2023-04-12T18:56:11.946Z,14.00
2023-04-12T18:59:17.739Z,13.80
2023-04-12T19:02:20.887Z,13.30
2023-04-12T19:05:25.244Z,13.20
2023-04-12T19:08:28.821Z,13.00
2023-04-12T19:11:31.652Z,13.00
2023-04-12T19:14:34.471Z,12.90
2023-04-12T19:17:38.923Z,12.90
2023-04-12T19:20:43.406Z,12.90
2023-04-12T19:23:46.202Z,13.00
2023-04-12T19:26:50.508Z,13.20
2023-04-12T19:29:53.539Z,13.10
2023-04-12T19:32:56.373Z,13.20
2023-04-12T19:36:00.641Z,13.30
2023-04-12T19:39:03.471Z,13.30
2023-04-12T19:42:06.475Z,13.20
2023-04-12T19:45:10.347Z,13.30
2023-04-12T19:48:13.504Z,13.10
2023-04-12T19:51:18.031Z,13.10
2023-04-12T19:54:23.646Z,13.20
2023-04-12T19:57:27.551Z,13.10
2023-04-12T20:00:30.367Z,13.00
2023-04-12T20:03:33.361Z,12.90
2023-04-12T20:06:37.529Z,12.90
2023-04-12T20:09:40.800Z,12.90
2023-04-12T20:12:44.310Z,12.90
2023-04-12T20:15:47.157Z,12.90
2023-04-12T20:18:55.430Z,12.80
2023-04-12T20:22:03.321Z,12.90
2023-04-12T20:25:06.911Z,12.90
2023-04-12T20:28:10.072Z,12.90
2023-04-12T20:31:14.081Z,13.00
2023-04-12T20:34:19.153Z,12.90
2023-04-12T20:37:23.317Z,13.00
2023-04-12T20:40:27.862Z,13.10
2023-04-12T20:43:30.812Z,13.10
2023-04-12T20:46:36.786Z,13.10
2023-04-12T20:49:39.818Z,12.90
2023-04-12T20:52:45.399Z,12.90
2023-04-12T20:55:48.221Z,12.90
2023-04-12T20:58:51.210Z,12.90
2023-04-12T21:01:54.419Z,12.80
2023-04-12T21:04:59.216Z,12.80
2023-04-12T21:08:03.594Z,12.80
2023-04-12T21:11:06.924Z,12.80
2023-04-12T21:14:10.522Z,12.80
2023-04-12T21:17:13.292Z,12.60
2023-04-12T21:20:16.779Z,12.60
2023-04-12T21:23:20.917Z,12.60
2023-04-12T21:26:23.700Z,12.50
2023-04-12T21:29:26.562Z,12.50
2023-04-12T21:32:29.926Z,12.50
2023-04-12T21:35:32.798Z,12.40
2023-04-12T21:38:37.204Z,12.40
2023-04-12T21:41:40.186Z,12.40
2023-04-12T21:44:43.096Z,12.40
2023-04-12T21:47:46.168Z,12.40
2023-04-12T21:50:49.393Z,12.20
2023-04-12T21:53:53.724Z,12.30
2023-04-12T21:56:57.336Z,12.30
2023-04-12T22:00:00.283Z,12.20
2023-04-12T22:03:03.519Z,12.10
2023-04-12T22:06:07.491Z,12.10
2023-04-12T22:09:11.815Z,12.10
2023-04-12T22:12:14.632Z,11.90
2023-04-12T22:15:17.971Z,12.00
2023-04-12T22:18:20.809Z,12.00
2023-04-12T22:21:23.744Z,12.10
2023-04-12T22:24:27.906Z,12.00
2023-04-12T22:27:30.669Z,12.10
2023-04-12T22:30:33.434Z,12.10
2023-04-12T22:33:38.044Z,12.10
2023-04-12T22:36:42.234Z,12.10
2023-04-12T22:39:51.362Z,12.10
2023-04-12T22:42:54.132Z,12.00
2023-04-12T22:46:02.095Z,11.90
2023-04-12T22:49:05.565Z,11.80
2023-04-12T22:52:08.358Z,11.80
2023-04-12T22:55:13.930Z,11.90
2023-04-12T22:58:17.077Z,11.90
2023-04-12T23:01:21.443Z,11.90
2023-04-12T23:04:24.315Z,11.90
2023-04-12T23:07:29.834Z,11.90
2023-04-12T23:10:34.223Z,11.90
2023-04-12T23:13:37.042Z,11.90
2023-04-12T23:16:44.060Z,11.90
2023-04-12T23:19:46.990Z,11.90
2023-04-12T23:22:57.940Z,11.90
2023-04-12T23:26:02.701Z,11.80
2023-04-12T23:29:05.720Z,11.80
2023-04-12T23:32:08.511Z,11.80
2023-04-12T23:35:12.173Z,11.70
2023-04-12T23:38:23.012Z,11.70
2023-04-12T23:41:27.816Z,11.80
2023-04-12T23:44:31.579Z,11.70
2023-04-12T23:47:34.363Z,11.70
2023-04-12T23:50:37.470Z,11.70
2023-04-12T23:53:40.254Z,11.50
2023-04-12T23:56:44.361Z,11.40
2023-04-12T23:59:47.264Z,11.40
